createdAt,value
2022-11-04T00:01:27.882Z,19.63
2022-11-04T00:03:55.611Z,19.48
2022-11-04T00:06:23.087Z,13.95
2022-11-04T00:08:51.027Z,21.10
2022-11-04T00:11:36.259Z,16.80
2022-11-04T00:14:03.765Z,17.75
2022-11-04T00:16:50.277Z,14.65
2022-11-04T00:19:18.087Z,18.73
2022-11-04T00:22:03.556Z,18.40
2022-11-04T00:24:48.446Z,17.02
2022-11-04T00:27:34.438Z,18.00
2022-11-04T00:30:02.276Z,14.82
2022-11-04T00:32:50.008Z,19.52
2022-11-04T00:35:17.919Z,16.50
2022-11-04T00:37:45.948Z,15.65
2022-11-04T00:40:14.135Z,18.63
2022-11-04T00:42:41.747Z,20.02
2022-11-04T00:45:09.637Z,17.15
2022-11-04T00:47:38.532Z,24.83
2022-11-04T00:50:06.618Z,15.32
2022-11-04T00:52:34.121Z,15.68
2022-11-04T00:55:01.680Z,16.50
2022-11-04T00:57:29.202Z,15.90
2022-11-04T00:59:56.653Z,19.67
2022-11-04T01:02:24.263Z,17.88
2022-11-04T01:04:53.206Z,14.48
2022-11-04T01:07:20.705Z,25.70
2022-11-04T01:09:49.568Z,18.77
2022-11-04T01:12:17.964Z,12.27
2022-11-04T01:14:49.789Z,22.33
2022-11-04T01:17:17.500Z,13.88
2022-11-04T01:19:45.017Z,17.27
2022-11-04T01:22:13.874Z,23.30
2022-11-04T01:24:41.351Z,15.57
2022-11-04T01:27:08.793Z,12.75
2022-11-04T01:29:36.295Z,20.20
2022-11-04T01:32:03.795Z,16.85
2022-11-04T01:34:31.500Z,12.40
2022-11-04T01:36:59.201Z,18.77
2022-11-04T01:39:28.066Z,14.38
2022-11-04T01:41:55.661Z,15.77
2022-11-04T01:44:41.894Z,17.27
2022-11-04T01:47:13.952Z,15.00
2022-11-04T01:49:43.486Z,14.38
2022-11-04T01:52:12.346Z,13.80
2022-11-04T01:54:42.489Z,15.55
2022-11-04T01:57:14.974Z,15.85
2022-11-04T01:59:43.104Z,12.43
2022-11-04T02:02:10.940Z,15.68
2022-11-04T02:04:40.198Z,14.68
2022-11-04T02:07:10.477Z,17.27
2022-11-04T02:09:39.328Z,16.15
2022-11-04T02:12:25.467Z,14.43
2022-11-04T02:14:53.987Z,12.73
2022-11-04T02:17:31.416Z,21.30
2022-11-04T02:20:10.209Z,18.73
2022-11-04T02:22:56.956Z,17.48
2022-11-04T02:25:43.403Z,15.57
2022-11-04T02:28:27.634Z,14.55
2022-11-04T02:31:03.416Z,14.60
2022-11-04T02:33:34.203Z,15.75
2022-11-04T02:36:03.447Z,19.05
2022-11-04T02:38:33.639Z,20.30
2022-11-04T02:41:02.734Z,14.30
2022-11-04T02:43:35.029Z,16.42
2022-11-04T02:46:06.203Z,20.27
2022-11-04T02:48:37.269Z,12.52
2022-11-04T02:51:06.564Z,18.73
2022-11-04T02:53:37.336Z,20.48
2022-11-04T02:56:06.268Z,17.48
2022-11-04T02:58:36.371Z,11.90
2022-11-04T03:01:06.092Z,17.80
2022-11-04T03:03:35.472Z,20.70
2022-11-04T03:06:03.798Z,17.27
2022-11-04T03:08:32.934Z,15.73
2022-11-04T03:11:06.009Z,18.75
2022-11-04T03:13:36.926Z,21.77
2022-11-04T03:16:09.151Z,12.98
2022-11-04T03:18:39.357Z,17.30
2022-11-04T03:21:10.389Z,13.98
2022-11-04T03:23:38.223Z,11.70
2022-11-04T03:26:10.230Z,13.95
2022-11-04T03:28:42.807Z,14.68
2022-11-04T03:31:14.436Z,15.95
2022-11-04T03:33:43.935Z,18.30
2022-11-04T03:36:11.529Z,15.70
2022-11-04T03:38:39.407Z,15.00
2022-11-04T03:41:09.363Z,19.33
2022-11-04T03:43:37.672Z,19.73
2022-11-04T03:46:05.322Z,16.13
2022-11-04T03:48:34.313Z,22.75
2022-11-04T03:51:01.775Z,12.27
2022-11-04T03:53:29.766Z,14.25
2022-11-04T03:56:03.593Z,16.52
2022-11-04T03:58:36.969Z,17.77
2022-11-04T04:01:10.994Z,19.83
2022-11-04T04:03:41.852Z,14.23
2022-11-04T04:06:11.870Z,14.32
2022-11-04T04:08:42.203Z,21.40
2022-11-04T04:11:12.295Z,20.48
2022-11-04T04:13:43.415Z,12.65
2022-11-04T04:16:13.119Z,16.15
2022-11-04T04:18:45.534Z,19.63
2022-11-04T04:21:16.023Z,20.67
2022-11-04T04:24:01.774Z,15.65
2022-11-04T04:26:47.785Z,21.17
2022-11-04T04:29:15.386Z,18.08
2022-11-04T04:31:52.543Z,16.15
2022-11-04T04:34:23.315Z,16.02
2022-11-04T04:36:53.716Z,21.65
2022-11-04T04:39:46.173Z,20.60
2022-11-04T04:42:31.006Z,22.23
2022-11-04T04:45:01.327Z,19.52
2022-11-04T04:47:31.218Z,17.80
2022-11-04T04:50:00.988Z,18.13
2022-11-04T04:52:29.692Z,23.27
2022-11-04T04:54:57.179Z,17.10
2022-11-04T04:57:24.640Z,28.45
2022-11-04T04:59:52.098Z,23.83
2022-11-04T05:02:19.719Z,16.65
2022-11-04T05:04:47.397Z,19.13
2022-11-04T05:07:16.266Z,17.65
2022-11-04T05:09:43.780Z,18.83
2022-11-04T05:12:11.263Z,20.05
2022-11-04T05:14:38.830Z,19.23
2022-11-04T05:17:06.300Z,21.60
2022-11-04T05:19:33.884Z,19.15
2022-11-04T05:22:01.427Z,21.63
2022-11-04T05:24:30.241Z,20.67
2022-11-04T05:26:57.710Z,21.65
2022-11-04T05:29:25.283Z,18.58
2022-11-04T05:31:52.750Z,18.33
2022-11-04T05:34:20.293Z,18.35
2022-11-04T05:36:48.006Z,19.30
2022-11-04T05:39:15.736Z,25.55
2022-11-04T05:41:44.548Z,26.95
2022-11-04T05:44:12.661Z,21.98
2022-11-04T05:46:40.179Z,23.90
2022-11-04T05:49:07.625Z,20.75
2022-11-04T05:51:35.430Z,23.52
2022-11-04T05:54:03.061Z,24.58
2022-11-04T05:56:30.587Z,22.83
2022-11-04T05:58:59.492Z,18.83
2022-11-04T06:01:28.651Z,26.45
2022-11-04T06:03:56.564Z,18.52
2022-11-04T06:06:24.728Z,19.35
2022-11-04T06:08:52.499Z,21.00
2022-11-04T06:11:20.762Z,27.10
2022-11-04T06:13:48.521Z,26.35
2022-11-04T06:16:17.334Z,20.15
2022-11-04T06:18:44.913Z,28.02
2022-11-04T06:21:22.087Z,21.25
2022-11-04T06:23:49.776Z,16.50
2022-11-04T06:26:18.297Z,21.52
2022-11-04T06:28:45.934Z,21.08
2022-11-04T06:31:14.684Z,19.23
2022-11-04T06:33:43.576Z,22.83
2022-11-04T06:36:12.112Z,20.45
2022-11-04T06:38:39.794Z,17.10
2022-11-04T06:41:07.882Z,21.85
2022-11-04T06:43:37.184Z,18.67
2022-11-04T06:46:04.992Z,21.27
2022-11-04T06:48:32.759Z,18.45
2022-11-04T06:51:02.940Z,20.15
2022-11-04T06:53:30.429Z,23.67
2022-11-04T06:56:03.151Z,19.50
2022-11-04T06:58:33.532Z,21.17
2022-11-04T07:01:01.114Z,24.77
2022-11-04T07:03:28.716Z,19.30
2022-11-04T07:05:56.385Z,28.80
2022-11-04T07:08:25.306Z,27.40
2022-11-04T07:10:55.724Z,22.83
2022-11-04T07:13:23.203Z,24.55
2022-11-04T07:15:50.870Z,19.20
2022-11-04T07:18:18.337Z,21.42
2022-11-04T07:20:45.880Z,24.20
2022-11-04T07:23:13.509Z,18.20
2022-11-04T07:25:43.113Z,18.88
2022-11-04T07:28:10.809Z,19.98
2022-11-04T07:30:38.481Z,17.75
2022-11-04T07:33:06.017Z,19.35
2022-11-04T07:35:33.510Z,16.30
2022-11-04T07:38:01.033Z,18.30
2022-11-04T07:40:28.597Z,19.10
2022-11-04T07:42:57.396Z,17.30
2022-11-04T07:45:24.909Z,14.25
2022-11-04T07:47:52.452Z,19.30
2022-11-04T07:50:20.098Z,15.15
2022-11-04T07:52:47.702Z,12.48
2022-11-04T07:55:18.629Z,15.55
2022-11-04T07:57:46.120Z,14.18
2022-11-04T08:00:16.457Z,13.95
2022-11-04T08:02:46.761Z,14.27
2022-11-04T08:05:14.642Z,14.52
2022-11-04T08:07:42.258Z,15.07
2022-11-04T08:10:10.278Z,19.17
2022-11-04T08:12:38.257Z,10.88
2022-11-04T08:15:06.334Z,11.75
2022-11-04T08:17:35.207Z,15.20
2022-11-04T08:20:08.516Z,14.63
2022-11-04T08:22:37.339Z,13.80
2022-11-04T08:25:05.852Z,13.93
2022-11-04T08:27:33.478Z,12.20
2022-11-04T08:30:00.975Z,14.07
2022-11-04T08:32:30.131Z,20.42
2022-11-04T08:34:58.933Z,14.68
2022-11-04T08:37:26.515Z,16.13
2022-11-04T08:39:53.979Z,12.85
2022-11-04T08:42:21.516Z,20.60
2022-11-04T08:45:10.628Z,18.55
2022-11-04T08:47:51.569Z,9.73
2022-11-04T08:51:08.664Z,17.83
2022-11-04T08:53:36.271Z,16.88
2022-11-04T08:56:10.246Z,17.30
2022-11-04T08:58:37.710Z,14.02
2022-11-04T09:01:05.643Z,18.88
2022-11-04T09:03:34.812Z,14.23
2022-11-04T09:06:03.749Z,19.00
2022-11-04T09:08:31.224Z,12.85
2022-11-04T09:10:58.903Z,19.30
2022-11-04T09:13:26.383Z,16.10
2022-11-04T09:15:55.379Z,19.17
2022-11-04T09:18:23.051Z,16.88
2022-11-04T09:20:50.545Z,16.98
2022-11-04T09:23:19.431Z,18.15
2022-11-04T09:25:46.981Z,16.55
2022-11-04T09:28:14.494Z,15.48
2022-11-04T09:30:42.039Z,13.13
2022-11-04T09:33:09.806Z,15.77
2022-11-04T09:35:38.321Z,17.15
2022-11-04T09:38:05.910Z,13.70
2022-11-04T09:40:57.536Z,14.57
2022-11-04T09:43:32.375Z,16.65
2022-11-04T09:46:00.537Z,16.35
2022-11-04T09:48:46.307Z,13.85
2022-11-04T09:51:26.564Z,15.30
2022-11-04T09:54:13.625Z,15.30
2022-11-04T09:57:06.474Z,19.15
2022-11-04T09:59:51.337Z,17.35
2022-11-04T10:02:53.729Z,17.25
2022-11-04T10:05:30.686Z,21.67
2022-11-04T10:08:05.973Z,21.70
2022-11-04T10:10:38.901Z,25.45
2022-11-04T10:13:14.340Z,19.40
2022-11-04T10:15:58.224Z,23.85
2022-11-04T10:18:30.567Z,23.00
2022-11-04T10:21:02.335Z,23.55
2022-11-04T10:23:33.357Z,23.67
2022-11-04T10:26:05.378Z,19.70
2022-11-04T10:28:40.826Z,23.15
2022-11-04T10:31:13.027Z,24.08
2022-11-04T10:33:44.813Z,25.58
2022-11-04T10:36:13.097Z,25.75
2022-11-04T10:38:41.958Z,23.80
2022-11-04T10:41:17.625Z,27.88
2022-11-04T10:43:45.101Z,31.48
2022-11-04T10:46:21.319Z,29.45
2022-11-04T10:48:51.840Z,30.83
2022-11-04T10:51:22.186Z,26.17
2022-11-04T10:53:52.124Z,29.45
2022-11-04T10:56:23.420Z,23.83
2022-11-04T10:58:50.955Z,19.88
2022-11-04T11:01:28.289Z,20.58
2022-11-04T11:03:56.410Z,20.80
2022-11-04T11:06:26.152Z,17.75
2022-11-04T11:08:54.944Z,24.85
2022-11-04T11:11:45.229Z,31.13
2022-11-04T11:14:17.270Z,28.85
2022-11-04T11:16:46.362Z,29.08
2022-11-04T11:19:18.051Z,21.73
2022-11-04T11:21:47.986Z,20.08
2022-11-04T11:24:17.320Z,20.65
2022-11-04T11:26:48.842Z,23.25
2022-11-04T11:29:24.678Z,22.05
2022-11-04T11:31:54.339Z,21.35
2022-11-04T11:34:23.687Z,25.30
2022-11-04T11:36:51.497Z,22.67
2022-11-04T11:39:22.046Z,19.48
2022-11-04T11:41:53.510Z,19.45
2022-11-04T11:44:24.380Z,23.90
2022-11-04T11:46:54.724Z,18.88
2022-11-04T11:49:28.540Z,17.55
2022-11-04T11:51:56.427Z,16.58
2022-11-04T11:54:26.909Z,20.58
2022-11-04T12:02:37.402Z,17.05
2022-11-04T12:10:52.424Z,18.30
2022-11-04T12:13:27.547Z,15.95
2022-11-04T12:16:06.405Z,16.17
2022-11-04T12:18:44.337Z,21.33
2022-11-04T12:21:13.967Z,16.33
2022-11-04T12:23:47.329Z,17.13
2022-11-04T12:26:18.025Z,17.63
2022-11-04T12:29:00.624Z,15.18
2022-11-04T12:31:32.865Z,18.75
2022-11-04T12:34:06.453Z,21.13
2022-11-04T12:36:43.732Z,15.70
2022-11-04T12:39:20.973Z,16.73
2022-11-04T12:44:47.681Z,15.00
2022-11-04T12:47:18.642Z,18.17
2022-11-04T12:49:55.180Z,19.70
2022-11-04T12:52:30.968Z,18.27
2022-11-04T12:55:04.251Z,17.05
2022-11-04T12:57:34.450Z,21.00
2022-11-04T13:00:09.911Z,17.38
2022-11-04T13:02:40.159Z,15.82
2022-11-04T13:05:18.479Z,19.75
2022-11-04T13:07:49.087Z,19.73
2022-11-04T13:10:19.782Z,22.55
2022-11-04T13:12:48.728Z,20.02
2022-11-04T13:15:19.143Z,21.67
2022-11-04T13:17:58.971Z,23.02
2022-11-04T13:20:32.720Z,16.85
2022-11-04T13:23:03.389Z,18.73
2022-11-04T13:25:33.569Z,18.98
2022-11-04T13:28:02.587Z,19.15
2022-11-04T13:30:32.541Z,20.27
2022-11-04T13:33:22.445Z,18.23
2022-11-04T13:35:56.018Z,24.58
2022-11-04T13:38:25.558Z,21.42
2022-11-04T13:40:58.721Z,21.35
2022-11-04T13:43:42.066Z,23.13
2022-11-04T13:46:20.795Z,19.98
2022-11-04T13:48:54.535Z,19.30
2022-11-04T13:51:23.598Z,23.63
2022-11-04T13:53:53.737Z,16.65
2022-11-04T13:56:33.514Z,22.13
2022-11-04T13:59:04.056Z,21.23
2022-11-04T14:01:32.653Z,23.75
2022-11-04T14:04:08.690Z,21.48
2022-11-04T14:06:54.118Z,19.80
2022-11-04T14:09:33.539Z,18.65
2022-11-04T14:12:17.163Z,18.08
2022-11-04T14:14:45.332Z,18.65
2022-11-04T14:17:47.669Z,21.13
2022-11-04T14:20:23.297Z,17.65
2022-11-04T14:22:54.437Z,17.35
2022-11-04T14:25:28.655Z,20.05
2022-11-04T14:28:00.152Z,22.63
2022-11-04T14:30:29.202Z,20.35
2022-11-04T14:32:58.182Z,20.25
2022-11-04T14:35:26.481Z,19.77
2022-11-04T14:37:55.950Z,16.17
2022-11-04T14:40:29.071Z,19.67
2022-11-04T14:42:57.433Z,17.50
2022-11-04T14:45:25.860Z,21.00
2022-11-04T14:47:55.938Z,20.95
2022-11-04T14:50:25.286Z,22.42
2022-11-04T14:52:55.152Z,20.20
2022-11-04T14:55:23.923Z,22.48
2022-11-04T14:57:53.926Z,16.30
2022-11-04T15:00:28.075Z,14.30
2022-11-04T15:03:05.018Z,15.85
2022-11-04T15:05:36.188Z,21.95
2022-11-04T15:08:04.790Z,19.52
2022-11-04T15:10:32.316Z,17.95
2022-11-04T15:13:02.783Z,17.67
2022-11-04T15:15:31.903Z,19.98
2022-11-04T15:18:01.750Z,21.70
2022-11-04T15:20:31.294Z,17.13
2022-11-04T15:22:59.608Z,22.20
2022-11-04T15:25:27.096Z,21.67
2022-11-04T15:27:55.405Z,16.45
2022-11-04T15:30:25.596Z,19.13
2022-11-04T15:32:57.436Z,17.25
2022-11-04T15:35:25.457Z,22.55
2022-11-04T15:37:54.172Z,17.85
2022-11-04T15:40:22.421Z,23.48
2022-11-04T15:42:49.650Z,17.13
2022-11-04T15:45:32.227Z,21.38
2022-11-04T15:48:18.569Z,16.30
2022-11-04T15:50:46.137Z,30.63
2022-11-04T15:53:16.270Z,20.88
2022-11-04T15:55:43.901Z,20.77
2022-11-04T15:58:13.315Z,21.75
2022-11-04T16:00:42.731Z,20.38
2022-11-04T16:03:18.665Z,18.00
2022-11-04T16:06:00.660Z,24.25
2022-11-04T16:08:29.204Z,21.42
2022-11-04T16:11:09.633Z,19.00
2022-11-04T16:13:37.221Z,17.83
2022-11-04T16:16:09.401Z,20.02
2022-11-04T16:18:42.628Z,23.60
2022-11-04T16:21:12.148Z,20.35
2022-11-04T16:23:44.178Z,23.48
2022-11-04T16:26:11.783Z,24.42
2022-11-04T16:28:39.848Z,24.08
2022-11-04T16:31:10.131Z,23.10
2022-11-04T16:33:37.923Z,20.73
2022-11-04T16:36:11.703Z,24.27
2022-11-04T16:38:39.390Z,16.75
2022-11-04T16:41:07.043Z,18.20
2022-11-04T16:43:34.575Z,17.40
2022-11-04T16:46:03.700Z,21.02
2022-11-04T16:48:32.501Z,16.00
2022-11-04T16:51:00.046Z,21.70
2022-11-04T16:53:27.513Z,20.30
2022-11-04T16:55:55.949Z,19.45
2022-11-04T16:58:23.542Z,22.33
2022-11-04T17:00:51.155Z,19.83
2022-11-04T17:03:21.626Z,27.90
2022-11-04T17:05:51.200Z,22.40
2022-11-04T17:08:18.765Z,21.45
2022-11-04T17:10:46.521Z,17.90
2022-11-04T17:13:14.127Z,24.10
2022-11-04T17:15:41.668Z,26.80
2022-11-04T17:18:10.982Z,24.65
2022-11-04T17:20:40.421Z,26.27
2022-11-04T17:23:10.541Z,21.95
2022-11-04T17:25:38.214Z,19.38
2022-11-04T17:28:05.957Z,25.15
2022-11-04T17:30:33.485Z,20.02
2022-11-04T17:33:01.146Z,25.10
2022-11-04T17:35:28.696Z,21.50
2022-11-04T17:37:56.272Z,18.70
2022-11-04T17:40:25.170Z,25.33
2022-11-04T17:43:12.294Z,26.35
2022-11-04T17:45:40.756Z,21.23
2022-11-04T17:48:08.478Z,24.30
2022-11-04T17:50:37.090Z,22.92
2022-11-04T17:53:04.800Z,27.33
2022-11-04T17:55:37.166Z,21.35
2022-11-04T17:58:04.692Z,22.17
2022-11-04T18:00:32.204Z,23.63
2022-11-04T18:02:59.798Z,17.35
2022-11-04T18:05:27.297Z,18.52
2022-11-04T18:07:56.474Z,22.90
2022-11-04T18:10:24.037Z,16.60
2022-11-04T18:12:52.855Z,17.85
2022-11-04T18:15:20.434Z,24.55
2022-11-04T18:17:49.994Z,16.20
2022-11-04T18:20:17.564Z,21.55
2022-11-04T18:22:45.105Z,20.95
2022-11-04T18:25:13.262Z,19.67
2022-11-04T18:27:40.949Z,19.83
2022-11-04T18:30:10.411Z,26.77
2022-11-04T18:32:37.939Z,21.90
2022-11-04T18:35:06.338Z,22.08
2022-11-04T18:37:34.211Z,20.30
2022-11-04T18:40:04.482Z,18.55
2022-11-04T18:42:32.181Z,21.63
2022-11-04T18:44:59.644Z,22.35
2022-11-04T18:47:33.764Z,22.95
2022-11-04T18:50:01.266Z,27.67
2022-11-04T18:52:28.761Z,25.63
2022-11-04T18:54:56.327Z,17.70
2022-11-04T18:57:23.910Z,19.17
2022-11-04T18:59:51.375Z,22.30
2022-11-04T19:02:20.587Z,24.70
2022-11-04T19:04:49.550Z,18.92
2022-11-04T19:07:17.219Z,21.60
2022-11-04T19:09:47.042Z,22.25
2022-11-04T19:12:32.737Z,23.75
2022-11-04T19:15:00.248Z,22.52
2022-11-04T19:17:27.814Z,22.17
2022-11-04T19:19:56.691Z,22.00
2022-11-04T19:22:24.261Z,18.23
2022-11-04T19:24:51.728Z,21.83
2022-11-04T19:27:21.604Z,24.80
2022-11-04T19:29:49.244Z,23.73
2022-11-04T19:32:16.760Z,25.42
2022-11-04T19:34:44.226Z,20.67
2022-11-04T19:37:13.069Z,22.40
2022-11-04T19:39:40.615Z,25.67
2022-11-04T19:42:25.788Z,22.75
2022-11-04T19:44:53.404Z,23.33
2022-11-04T19:47:21.055Z,23.25
2022-11-04T19:49:48.558Z,30.13
2022-11-04T19:52:17.432Z,28.77
2022-11-04T19:54:44.938Z,30.13
2022-11-04T19:57:12.448Z,34.15
2022-11-04T19:59:40.045Z,33.42
2022-11-04T20:02:09.080Z,35.22
2022-11-04T20:04:36.809Z,34.25
2022-11-04T20:07:04.278Z,31.38
2022-11-04T20:09:33.104Z,34.30
2022-11-04T20:12:23.545Z,37.58
2022-11-04T20:14:51.111Z,33.45
2022-11-04T20:17:18.579Z,41.80
2022-11-04T20:19:46.135Z,37.75
2022-11-04T20:22:13.608Z,34.38
2022-11-04T20:24:42.525Z,32.92
2022-11-04T20:27:15.009Z,36.13
2022-11-04T20:29:42.791Z,36.78
2022-11-04T20:32:10.323Z,33.35
2022-11-04T20:34:37.987Z,39.33
2022-11-04T20:37:05.629Z,41.40
2022-11-04T20:39:33.122Z,31.98
2022-11-04T20:42:01.985Z,33.58
2022-11-04T20:44:29.435Z,31.38
2022-11-04T20:46:56.920Z,28.60
2022-11-04T20:49:24.464Z,32.90
2022-11-04T20:51:55.463Z,41.25
2022-11-04T20:54:23.352Z,31.00
2022-11-04T20:56:50.867Z,33.33
2022-11-04T20:59:19.709Z,29.90
2022-11-04T21:01:48.604Z,28.48
2022-11-04T21:04:18.337Z,33.80
2022-11-04T21:06:46.402Z,30.92
2022-11-04T21:09:14.645Z,30.75
2022-11-04T21:11:43.577Z,35.20
2022-11-04T21:14:12.754Z,36.22
2022-11-04T21:16:41.579Z,30.80
2022-11-04T21:19:09.424Z,28.85
2022-11-04T21:21:36.894Z,32.35
2022-11-04T21:24:05.564Z,31.02
2022-11-04T21:26:34.310Z,33.53
2022-11-04T21:29:02.779Z,29.80
2022-11-04T21:31:31.583Z,26.05
2022-11-04T21:34:00.484Z,25.55
2022-11-04T21:36:28.646Z,28.90
2022-11-04T21:38:56.143Z,28.25
2022-11-04T21:41:25.539Z,26.08
2022-11-04T21:43:54.647Z,24.52
2022-11-04T21:46:22.236Z,28.23
2022-11-04T21:48:49.759Z,30.10
2022-11-04T21:51:19.679Z,32.83
2022-11-04T21:53:47.664Z,33.28
2022-11-04T21:56:16.659Z,29.30
2022-11-04T21:58:44.402Z,27.85
2022-11-04T22:01:13.376Z,25.88
2022-11-04T22:03:41.105Z,27.23
2022-11-04T22:06:10.243Z,29.75
2022-11-04T22:08:39.365Z,28.05
2022-11-04T22:11:08.452Z,39.17
2022-11-04T22:13:36.074Z,32.45
2022-11-04T22:16:10.598Z,33.75
2022-11-04T22:18:38.100Z,40.03
2022-11-04T22:21:06.717Z,30.33
2022-11-04T22:23:34.621Z,29.58
2022-11-04T22:26:04.311Z,30.02
2022-11-04T22:28:31.850Z,29.83
2022-11-04T22:31:05.406Z,36.25
2022-11-04T22:33:32.961Z,29.77
2022-11-04T22:36:00.786Z,41.15
2022-11-04T22:38:28.379Z,32.50
2022-11-04T22:40:57.175Z,36.28
2022-11-04T22:43:27.771Z,29.02
2022-11-04T22:45:56.609Z,30.90
2022-11-04T22:48:24.378Z,37.70
2022-11-04T22:50:55.516Z,40.25
2022-11-04T22:53:23.197Z,40.75
2022-11-04T22:56:17.431Z,38.47
2022-11-04T22:58:46.422Z,38.90
2022-11-04T23:01:15.431Z,31.55
2022-11-04T23:03:43.083Z,39.40
2022-11-04T23:06:10.968Z,34.80
2022-11-04T23:08:38.785Z,40.75
2022-11-04T23:11:25.390Z,38.15
2022-11-04T23:14:18.780Z,33.92
2022-11-04T23:19:32.898Z,42.92
2022-11-04T23:22:17.600Z,40.08
2022-11-04T23:25:02.414Z,46.40
2022-11-04T23:27:47.661Z,42.65
2022-11-04T23:30:22.401Z,44.33
2022-11-04T23:32:50.048Z,44.78
2022-11-04T23:35:35.322Z,45.78
2022-11-04T23:38:02.867Z,45.85
2022-11-04T23:40:31.116Z,41.00
2022-11-04T23:42:57.603Z,48.08
2022-11-04T23:45:44.167Z,46.75
2022-11-04T23:48:29.495Z,45.15
2022-11-04T23:51:14.830Z,43.20
2022-11-04T23:53:59.741Z,48.03
2022-11-04T23:56:45.132Z,51.70
2022-11-04T23:59:30.517Z,51.08
